createdAt,value
2023-05-12T00:00:18.793Z,1223.00
2023-05-12T00:01:18.526Z,1218.00
2023-05-12T00:02:18.581Z,1226.00
2023-05-12T00:03:18.621Z,1227.00
2023-05-12T00:04:18.661Z,1221.00
2023-05-12T00:05:18.688Z,1222.00
2023-05-12T00:06:18.690Z,1218.00
2023-05-12T00:07:18.728Z,1224.00
2023-05-12T00:08:18.812Z,1221.00
2023-05-12T00:09:18.790Z,1207.00
2023-05-12T00:10:19.171Z,1216.00
2023-05-12T00:11:18.852Z,1218.00
2023-05-12T00:12:18.875Z,1215.00
2023-05-12T00:13:18.983Z,1200.00
2023-05-12T00:14:18.951Z,1206.00
2023-05-12T00:15:19.010Z,1193.00
2023-05-12T00:16:19.096Z,1213.00
2023-05-12T00:17:19.057Z,1199.00
2023-05-12T00:18:19.115Z,1209.00
2023-05-12T00:19:19.121Z,1197.00
2023-05-12T00:20:19.364Z,1197.00
2023-05-12T00:21:19.159Z,1194.00
2023-05-12T00:22:19.197Z,1197.00
2023-05-12T00:23:19.230Z,1195.00
2023-05-12T00:24:19.269Z,1198.00
2023-05-12T00:25:19.303Z,1202.00
2023-05-12T00:26:19.324Z,1187.00
2023-05-12T00:27:19.350Z,1181.00
2023-05-12T00:28:19.378Z,1187.00
2023-05-12T00:29:19.427Z,1187.00
2023-05-12T00:30:19.675Z,1171.00
2023-05-12T00:31:19.500Z,1174.00
2023-05-12T00:32:19.537Z,1177.00
2023-05-12T00:33:19.581Z,1178.00
2023-05-12T00:34:19.603Z,1186.00
2023-05-12T00:35:19.622Z,1186.00
2023-05-12T00:36:19.655Z,1179.00
2023-05-12T00:37:19.683Z,1193.00
2023-05-12T00:38:19.719Z,1176.00
2023-05-12T00:39:19.784Z,1182.00
2023-05-12T00:40:19.966Z,1181.00
2023-05-12T00:41:19.820Z,1168.00
2023-05-12T00:42:19.829Z,1173.00
2023-05-12T00:43:19.873Z,1162.00
2023-05-12T00:44:19.907Z,1173.00
2023-05-12T00:45:19.934Z,1170.00
2023-05-12T00:46:19.992Z,1169.00
2023-05-12T00:47:20.004Z,1163.00
2023-05-12T00:48:20.024Z,1164.00
2023-05-12T00:49:20.071Z,1162.00
2023-05-12T00:50:20.306Z,1150.00
2023-05-12T00:51:20.131Z,1160.00
2023-05-12T00:52:20.187Z,1150.00
2023-05-12T00:53:20.191Z,1155.00
2023-05-12T00:54:20.217Z,1160.00
2023-05-12T00:55:20.261Z,1136.00
2023-05-12T00:56:20.369Z,1143.00
2023-05-12T00:57:20.326Z,1148.00
2023-05-12T00:58:20.349Z,1148.00
2023-05-12T00:59:20.404Z,1138.00
2023-05-12T01:00:20.627Z,1143.00
2023-05-12T01:01:20.478Z,1146.00
2023-05-12T01:02:20.545Z,1144.00
2023-05-12T01:03:20.623Z,1152.00
2023-05-12T01:04:20.547Z,1133.00
2023-05-12T01:05:20.579Z,1142.00
2023-05-12T01:06:20.620Z,1135.00
2023-05-12T01:07:20.650Z,1127.00
2023-05-12T01:08:20.681Z,1134.00
2023-05-12T01:09:20.711Z,1127.00
2023-05-12T01:10:21.067Z,1126.00
2023-05-12T01:11:20.792Z,1125.00
2023-05-12T01:12:20.825Z,1124.00
2023-05-12T01:13:20.865Z,1135.00
2023-05-12T01:14:20.879Z,1129.00
2023-05-12T01:15:20.905Z,1111.00
2023-05-12T01:16:20.950Z,1114.00
2023-05-12T01:17:21.011Z,1111.00
2023-05-12T01:18:21.074Z,1111.00
2023-05-12T01:19:21.045Z,1118.00
2023-05-12T01:20:21.256Z,1109.00
2023-05-12T01:21:21.117Z,1112.00
2023-05-12T01:22:21.160Z,1123.00
2023-05-12T01:23:21.153Z,1125.00
2023-05-12T01:24:21.200Z,1117.00
2023-05-12T01:25:21.233Z,1109.00
2023-05-12T01:26:21.268Z,1115.00
2023-05-12T01:27:21.296Z,1120.00
2023-05-12T01:28:21.333Z,1102.00
2023-05-12T01:29:21.371Z,1111.00
2023-05-12T01:30:21.637Z,1106.00
2023-05-12T01:31:21.541Z,1103.00
2023-05-12T01:32:21.542Z,1110.00
2023-05-12T01:33:21.508Z,1107.00
2023-05-12T01:34:21.522Z,1099.00
2023-05-12T01:35:21.564Z,1097.00
2023-05-12T01:36:21.605Z,1094.00
2023-05-12T01:37:21.620Z,1109.00
2023-05-12T01:38:21.650Z,1091.00
2023-05-12T01:39:21.831Z,1099.00
2023-05-12T01:40:21.924Z,1098.00
2023-05-12T01:41:21.753Z,1079.00
2023-05-12T01:42:21.790Z,1081.00
2023-05-12T01:43:22.380Z,1103.00
2023-05-12T01:44:21.898Z,1101.00
2023-05-12T01:45:21.904Z,1099.00
2023-05-12T01:46:21.992Z,1097.00
2023-05-12T01:47:22.020Z,1089.00
2023-05-12T01:48:22.010Z,1092.00
2023-05-12T01:49:22.045Z,1082.00
2023-05-12T01:50:22.207Z,1090.00
2023-05-12T01:51:22.143Z,1080.00
2023-05-12T01:52:22.174Z,1083.00
2023-05-12T01:53:22.221Z,1081.00
2023-05-12T01:54:22.220Z,1078.00
2023-05-12T01:55:22.258Z,1087.00
2023-05-12T01:56:22.304Z,1078.00
2023-05-12T01:57:22.333Z,1078.00
2023-05-12T01:58:22.369Z,1075.00
2023-05-12T01:59:22.452Z,1071.00
2023-05-12T02:00:22.694Z,1069.00
2023-05-12T02:01:22.465Z,1061.00
2023-05-12T02:02:22.468Z,1075.00
2023-05-12T02:03:22.543Z,1070.00
2023-05-12T02:04:22.550Z,1069.00
2023-05-12T02:05:22.606Z,1060.00
2023-05-12T02:06:22.630Z,1065.00
2023-05-12T02:07:22.677Z,1064.00
2023-05-12T02:08:22.715Z,1064.00
2023-05-12T02:09:22.811Z,1075.00
2023-05-12T02:10:22.913Z,1076.00
2023-05-12T02:11:22.817Z,1052.00
2023-05-12T02:12:22.889Z,1073.00
2023-05-12T02:13:22.916Z,1053.00
2023-05-12T02:14:22.945Z,1057.00
2023-05-12T02:15:23.000Z,1060.00
2023-05-12T02:16:23.100Z,1061.00
2023-05-12T02:17:23.108Z,1060.00
2023-05-12T02:18:23.142Z,1049.00
2023-05-12T02:19:23.128Z,1049.00
2023-05-12T02:20:23.175Z,1049.00
2023-05-12T02:21:23.215Z,1056.00
2023-05-12T02:22:23.258Z,1042.00
2023-05-12T02:23:23.285Z,1046.00
2023-05-12T02:24:23.324Z,1043.00
2023-05-12T02:25:23.384Z,1049.00
2023-05-12T02:26:23.406Z,1041.00
2023-05-12T02:27:23.444Z,1036.00
2023-05-12T02:28:23.474Z,1048.00
2023-05-12T02:29:23.508Z,1041.00
2023-05-12T02:30:23.573Z,1049.00
2023-05-12T02:31:23.624Z,1053.00
2023-05-12T02:32:23.676Z,1051.00
2023-05-12T02:33:23.696Z,1036.00
2023-05-12T02:34:23.718Z,1044.00
2023-05-12T02:35:23.784Z,1032.00
2023-05-12T02:36:23.834Z,1030.00
2023-05-12T02:37:23.834Z,1040.00
2023-05-12T02:38:23.897Z,1019.00
2023-05-12T02:39:23.918Z,1020.00
2023-05-12T02:40:23.982Z,1026.00
2023-05-12T02:41:24.040Z,1025.00
2023-05-12T02:42:24.027Z,1032.00
2023-05-12T02:43:24.075Z,1033.00
2023-05-12T02:44:24.124Z,1024.00
2023-05-12T02:45:24.180Z,1016.00
2023-05-12T02:46:24.313Z,1012.00
2023-05-12T02:47:24.309Z,1018.00
2023-05-12T02:48:24.287Z,1027.00
2023-05-12T02:49:24.335Z,1006.00
2023-05-12T02:50:24.375Z,1012.00
2023-05-12T02:51:24.391Z,1020.00
2023-05-12T02:52:24.455Z,1037.00
2023-05-12T02:53:24.476Z,1020.00
2023-05-12T02:54:24.529Z,1019.00
2023-05-12T02:55:24.573Z,1011.00
2023-05-12T02:56:24.645Z,1026.00
2023-05-12T02:57:24.657Z,1006.00
2023-05-12T02:58:24.680Z,1011.00
2023-05-12T02:59:24.734Z,992.00
2023-05-12T03:00:24.789Z,1009.00
2023-05-12T03:01:24.905Z,1004.00
2023-05-12T03:02:24.923Z,995.00
2023-05-12T03:03:25.019Z,992.00
2023-05-12T03:04:24.949Z,993.00
2023-05-12T03:05:24.985Z,995.00
2023-05-12T03:06:25.047Z,995.00
2023-05-12T03:07:25.070Z,1002.00
2023-05-12T03:08:25.118Z,1006.00
2023-05-12T03:09:25.155Z,989.00
2023-05-12T03:10:25.214Z,978.00
2023-05-12T03:11:25.309Z,1001.00
2023-05-12T03:12:25.281Z,986.00
2023-05-12T03:13:25.380Z,987.00
2023-05-12T03:14:25.393Z,998.00
2023-05-12T03:15:25.460Z,994.00
2023-05-12T03:16:25.551Z,996.00
2023-05-12T03:17:25.562Z,975.00
2023-05-12T03:18:25.626Z,999.00
2023-05-12T03:19:25.614Z,986.00
2023-05-12T03:20:25.706Z,980.00
2023-05-12T03:21:25.709Z,979.00
2023-05-12T03:22:25.747Z,982.00
2023-05-12T03:23:25.800Z,992.00
2023-05-12T03:24:25.849Z,988.00
2023-05-12T03:25:25.892Z,985.00
2023-05-12T03:26:25.936Z,982.00
2023-05-12T03:27:25.985Z,975.00
2023-05-12T03:28:26.053Z,971.00
2023-05-12T03:29:26.071Z,968.00
2023-05-12T03:30:26.177Z,973.00
2023-05-12T03:31:26.324Z,967.00
2023-05-12T03:32:26.239Z,973.00
2023-05-12T03:33:26.290Z,975.00
2023-05-12T03:34:26.306Z,971.00
2023-05-12T03:35:26.379Z,969.00
2023-05-12T03:36:26.404Z,976.00
2023-05-12T03:37:26.459Z,972.00
2023-05-12T03:38:26.488Z,968.00
2023-05-12T03:39:26.539Z,973.00
2023-05-12T03:40:26.566Z,961.00
2023-05-12T03:41:26.608Z,964.00
2023-05-12T03:42:26.671Z,961.00
2023-05-12T03:43:26.708Z,968.00
2023-05-12T03:44:26.745Z,968.00
2023-05-12T03:45:26.813Z,969.00
2023-05-12T03:46:26.896Z,949.00
2023-05-12T03:47:28.495Z,952.00
2023-05-12T03:48:26.997Z,957.00
2023-05-12T03:49:26.959Z,948.00
2023-05-12T03:50:27.019Z,951.00
2023-05-12T03:51:27.063Z,944.00
2023-05-12T03:52:27.096Z,964.00
2023-05-12T03:53:27.144Z,957.00
2023-05-12T03:54:27.198Z,971.00
2023-05-12T03:55:27.238Z,955.00
2023-05-12T03:56:27.296Z,944.00
2023-05-12T03:57:27.340Z,939.00
2023-05-12T03:58:27.387Z,947.00
2023-05-12T03:59:27.442Z,947.00
2023-05-12T04:00:27.479Z,954.00
2023-05-12T04:01:27.553Z,945.00
2023-05-12T04:02:27.751Z,943.00
2023-05-12T04:03:27.763Z,933.00
2023-05-12T04:04:27.688Z,950.00
2023-05-12T04:05:27.733Z,943.00
2023-05-12T04:06:27.797Z,957.00
2023-05-12T04:07:27.864Z,939.00
2023-05-12T04:08:27.874Z,929.00
2023-05-12T04:09:27.916Z,938.00
2023-05-12T04:10:27.964Z,932.00
2023-05-12T04:11:28.012Z,941.00
2023-05-12T04:12:28.078Z,937.00
2023-05-12T04:13:28.113Z,934.00
2023-05-12T04:14:39.077Z,937.00
2023-05-12T04:15:29.165Z,937.00
2023-05-12T04:16:28.177Z,938.00
2023-05-12T04:17:28.175Z,936.00
2023-05-12T04:18:28.171Z,930.00
2023-05-12T04:19:28.115Z,933.00
2023-05-12T04:20:28.125Z,929.00
2023-05-12T04:21:28.118Z,934.00
2023-05-12T04:22:28.102Z,951.00
2023-05-12T04:23:28.107Z,928.00
2023-05-12T04:24:28.231Z,932.00
2023-05-12T04:25:28.209Z,925.00
2023-05-12T04:26:28.255Z,927.00
2023-05-12T04:27:28.309Z,923.00
2023-05-12T04:28:28.349Z,919.00
2023-05-12T04:29:28.410Z,927.00
2023-05-12T04:30:28.451Z,918.00
2023-05-12T04:31:28.559Z,920.00
2023-05-12T04:32:28.619Z,916.00
2023-05-12T04:33:28.621Z,907.00
2023-05-12T04:34:28.668Z,918.00
2023-05-12T04:35:28.700Z,901.00
2023-05-12T04:36:28.771Z,913.00
2023-05-12T04:37:28.855Z,911.00
2023-05-12T04:38:28.871Z,912.00
2023-05-12T04:39:28.931Z,901.00
2023-05-12T04:40:29.003Z,916.00
2023-05-12T04:41:29.078Z,913.00
2023-05-12T04:42:29.101Z,903.00
2023-05-12T04:44:29.149Z,915.00
2023-05-12T04:45:29.129Z,914.00
2023-05-12T04:46:29.187Z,921.00
2023-05-12T04:47:29.145Z,903.00
2023-05-12T04:48:29.150Z,894.00
2023-05-12T04:49:29.098Z,906.00
2023-05-12T04:50:29.100Z,893.00
2023-05-12T04:51:29.114Z,890.00
2023-05-12T04:52:29.086Z,881.00
2023-05-12T04:53:29.083Z,878.00
2023-05-12T04:54:29.067Z,884.00
2023-05-12T04:55:29.082Z,878.00
2023-05-12T04:56:29.041Z,878.00
2023-05-12T04:57:29.084Z,888.00
2023-05-12T04:58:29.041Z,889.00
2023-05-12T04:59:29.042Z,876.00
2023-05-12T05:00:29.035Z,888.00
2023-05-12T05:01:29.095Z,886.00
2023-05-12T05:02:29.153Z,885.00
2023-05-12T05:03:29.145Z,871.00
2023-05-12T05:04:29.005Z,888.00
2023-05-12T05:05:28.992Z,866.00
2023-05-12T05:06:28.992Z,870.00
2023-05-12T05:07:29.010Z,893.00
2023-05-12T05:08:28.978Z,864.00
2023-05-12T05:09:28.990Z,874.00
2023-05-12T05:10:29.018Z,867.00
2023-05-12T05:11:28.958Z,874.00
2023-05-12T05:12:28.950Z,864.00
2023-05-12T05:13:28.952Z,864.00
2023-05-12T05:14:28.931Z,852.00
2023-05-12T05:15:28.971Z,872.00
2023-05-12T05:16:29.022Z,855.00
2023-05-12T05:17:28.984Z,867.00
2023-05-12T05:18:28.948Z,861.00
2023-05-12T05:19:39.197Z,855.00
2023-05-12T05:20:29.950Z,856.00
2023-05-12T05:21:28.903Z,857.00
2023-05-12T05:22:28.898Z,856.00
2023-05-12T05:23:28.885Z,863.00
2023-05-12T05:24:28.862Z,854.00
2023-05-12T05:25:28.883Z,854.00
2023-05-12T05:26:28.858Z,850.00
2023-05-12T05:27:28.853Z,861.00
2023-05-12T05:28:28.881Z,851.00
2023-05-12T05:29:28.919Z,862.00
2023-05-12T05:30:28.912Z,844.00
2023-05-12T05:31:29.185Z,841.00
2023-05-12T05:32:29.961Z,813.00
2023-05-12T05:33:29.075Z,680.00
2023-05-12T05:34:29.233Z,603.00
2023-05-12T05:35:29.168Z,560.00
2023-05-12T05:36:30.570Z,555.00
2023-05-12T05:37:29.281Z,566.00
2023-05-12T05:38:29.360Z,541.00
2023-05-12T05:39:29.387Z,531.00
2023-05-12T05:40:31.971Z,516.00
2023-05-12T05:41:30.432Z,512.00
2023-05-12T05:42:29.420Z,502.00
2023-05-12T05:43:29.422Z,512.00
2023-05-12T05:44:29.409Z,513.00
2023-05-12T05:45:29.453Z,534.00
2023-05-12T05:46:29.426Z,552.00
2023-05-12T05:47:29.397Z,554.00
2023-05-12T05:48:29.388Z,556.00
2023-05-12T05:49:29.433Z,560.00
2023-05-12T05:50:29.365Z,563.00
2023-05-12T05:51:29.406Z,563.00
2023-05-12T05:52:29.489Z,576.00
2023-05-12T05:53:29.517Z,567.00
2023-05-12T05:54:29.518Z,562.00
2023-05-12T05:55:29.571Z,567.00
2023-05-12T05:56:29.598Z,562.00
2023-05-12T05:57:29.621Z,565.00
2023-05-12T05:58:29.656Z,562.00
2023-05-12T05:59:29.755Z,569.00
2023-05-12T06:00:29.782Z,561.00
2023-05-12T06:01:29.778Z,561.00
2023-05-12T06:02:29.857Z,565.00
2023-05-12T06:03:29.873Z,565.00
2023-05-12T06:04:29.902Z,565.00
2023-05-12T06:05:29.895Z,560.00
2023-05-12T06:06:29.925Z,559.00
2023-05-12T06:07:30.056Z,567.00
2023-05-12T06:08:30.004Z,556.00
2023-05-12T06:09:30.044Z,560.00
2023-05-12T06:10:30.070Z,558.00
2023-05-12T06:11:30.130Z,558.00
2023-05-12T06:12:30.409Z,563.00
2023-05-12T06:13:30.180Z,556.00
2023-05-12T06:14:30.208Z,557.00
2023-05-12T06:15:30.263Z,549.00
2023-05-12T06:16:30.301Z,552.00
2023-05-12T06:17:32.021Z,561.00
2023-05-12T06:18:30.381Z,553.00
2023-05-12T06:19:30.387Z,552.00
2023-05-12T06:20:30.462Z,548.00
2023-05-12T06:21:30.489Z,556.00
2023-05-12T06:22:30.510Z,553.00
2023-05-12T06:23:30.563Z,553.00
2023-05-12T06:24:30.581Z,547.00
2023-05-12T06:25:30.626Z,553.00
2023-05-12T06:26:30.653Z,541.00
2023-05-12T06:27:30.713Z,544.00
2023-05-12T06:28:30.853Z,548.00
2023-05-12T06:29:30.783Z,542.00
2023-05-12T06:30:30.818Z,546.00
2023-05-12T06:31:30.888Z,544.00
2023-05-12T06:32:30.994Z,546.00
2023-05-12T06:33:30.938Z,546.00
2023-05-12T06:34:30.978Z,542.00
2023-05-12T06:35:30.999Z,540.00
2023-05-12T06:36:31.045Z,541.00
2023-05-12T06:37:31.089Z,541.00
2023-05-12T06:38:31.108Z,533.00
2023-05-12T06:39:31.170Z,535.00
2023-05-12T06:40:31.223Z,544.00
2023-05-12T06:41:31.236Z,547.00
2023-05-12T06:42:31.426Z,552.00
2023-05-12T06:43:31.295Z,546.00
2023-05-12T06:44:31.324Z,542.00
2023-05-12T06:45:31.370Z,543.00
2023-05-12T06:46:31.440Z,542.00
2023-05-12T06:47:31.476Z,539.00
2023-05-12T06:48:31.501Z,537.00
2023-05-12T06:49:31.502Z,538.00
2023-05-12T06:50:31.542Z,533.00
2023-05-12T06:51:31.599Z,535.00
2023-05-12T06:52:32.498Z,536.00
2023-05-12T06:53:31.781Z,531.00
2023-05-12T06:54:31.816Z,529.00
2023-05-12T06:55:31.732Z,528.00
2023-05-12T06:56:31.785Z,526.00
2023-05-12T06:57:31.821Z,532.00
2023-05-12T06:58:31.835Z,530.00
2023-05-12T06:59:31.867Z,532.00
2023-05-12T07:00:31.941Z,529.00
2023-05-12T07:01:32.009Z,524.00
2023-05-12T07:02:32.002Z,524.00
2023-05-12T07:03:32.104Z,524.00
2023-05-12T07:04:32.221Z,524.00
2023-05-12T07:05:32.098Z,522.00
2023-05-12T07:06:32.112Z,519.00
2023-05-12T07:07:32.153Z,522.00
2023-05-12T07:08:32.219Z,519.00
2023-05-12T07:09:32.224Z,513.00
2023-05-12T07:10:32.290Z,516.00
2023-05-12T07:11:32.292Z,521.00
2023-05-12T07:12:32.323Z,523.00
2023-05-12T07:13:32.386Z,523.00
2023-05-12T07:14:32.421Z,517.00
2023-05-12T07:15:33.000Z,513.00
2023-05-12T07:16:32.614Z,519.00
2023-05-12T07:17:32.546Z,514.00
2023-05-12T07:18:32.598Z,513.00
2023-05-12T07:19:32.606Z,513.00
2023-05-12T07:20:32.648Z,511.00
2023-05-12T07:21:32.699Z,513.00
2023-05-12T07:22:32.829Z,508.00
2023-05-12T07:23:32.800Z,505.00
2023-05-12T07:24:32.798Z,508.00
2023-05-12T07:25:32.910Z,506.00
2023-05-12T07:26:33.001Z,508.00
2023-05-12T07:27:32.924Z,501.00
2023-05-12T07:28:32.975Z,501.00
2023-05-12T07:29:33.026Z,505.00
2023-05-12T07:30:33.100Z,526.00
2023-05-12T07:31:33.109Z,537.00
2023-05-12T07:32:33.144Z,543.00
2023-05-12T07:33:33.185Z,553.00
2023-05-12T07:34:33.223Z,560.00
2023-05-12T07:35:33.271Z,596.00
2023-05-12T07:36:33.312Z,631.00
2023-05-12T07:37:33.349Z,679.00
2023-05-12T07:38:33.292Z,1303.00
2023-05-12T07:39:33.326Z,1460.00
2023-05-12T07:40:33.326Z,1484.00
2023-05-12T07:41:34.525Z,1375.00
2023-05-12T07:42:33.382Z,1319.00
2023-05-12T07:43:33.444Z,1323.00
2023-05-12T07:44:33.448Z,1298.00
2023-05-12T07:45:33.448Z,1316.00
2023-05-12T07:46:33.608Z,1357.00
2023-05-12T07:47:33.427Z,1381.00
2023-05-12T07:48:33.499Z,1413.00
2023-05-12T07:49:33.440Z,1437.00
2023-05-12T07:50:33.426Z,1490.00
2023-05-12T07:51:33.463Z,1513.00
2023-05-12T07:52:33.484Z,1546.00
2023-05-12T07:53:33.508Z,1576.00
2023-05-12T07:54:33.428Z,1598.00
2023-05-12T07:55:33.405Z,1598.00
2023-05-12T07:56:33.422Z,1424.00
2023-05-12T07:57:33.497Z,1361.00
2023-05-12T07:58:33.467Z,1182.00
2023-05-12T07:59:33.475Z,1084.00
2023-05-12T08:00:33.446Z,756.00
2023-05-12T08:01:33.456Z,719.00
2023-05-12T08:02:33.551Z,1138.00
2023-05-12T08:03:33.678Z,774.00
2023-05-12T08:04:33.521Z,686.00
2023-05-12T08:05:33.519Z,786.00
2023-05-12T08:06:33.542Z,1020.00
2023-05-12T08:07:33.566Z,1021.00
2023-05-12T08:08:33.561Z,1010.00
2023-05-12T08:09:33.564Z,1056.00
2023-05-12T08:10:33.577Z,1093.00
2023-05-12T08:11:33.631Z,1079.00
2023-05-12T08:12:33.610Z,1182.00
2023-05-12T08:13:33.619Z,1191.00
2023-05-12T08:14:33.654Z,1206.00
2023-05-12T08:15:33.639Z,1135.00
2023-05-12T08:16:33.711Z,1121.00
2023-05-12T08:17:33.687Z,1135.00
2023-05-12T08:18:33.657Z,1164.00
2023-05-12T08:19:33.653Z,1203.00
2023-05-12T08:20:33.671Z,1165.00
2023-05-12T08:21:33.679Z,1126.00
2023-05-12T08:22:33.727Z,1138.00
2023-05-12T08:23:33.661Z,1184.00
2023-05-12T08:24:33.700Z,1172.00
2023-05-12T08:25:33.655Z,1139.00
2023-05-12T08:26:33.675Z,1143.00
2023-05-12T08:27:33.662Z,1146.00
2023-05-12T08:28:33.673Z,1142.00
2023-05-12T08:29:33.692Z,1135.00
2023-05-12T08:30:33.686Z,1153.00
2023-05-12T08:31:33.755Z,1124.00
2023-05-12T08:32:33.746Z,1092.00
2023-05-12T08:33:33.687Z,1106.00
2023-05-12T08:34:33.661Z,1087.00
2023-05-12T08:35:33.644Z,1100.00
2023-05-12T08:36:33.694Z,1078.00
2023-05-12T08:37:34.529Z,1084.00
2023-05-12T08:38:33.716Z,1090.00
2023-05-12T08:39:33.691Z,994.00
2023-05-12T08:40:33.671Z,971.00
2023-05-12T08:41:33.678Z,897.00
2023-05-12T08:42:33.659Z,889.00
2023-05-12T08:43:33.654Z,880.00
2023-05-12T08:44:33.675Z,888.00
2023-05-12T08:45:33.665Z,919.00
2023-05-12T08:46:33.754Z,947.00
2023-05-12T08:47:33.748Z,963.00
2023-05-12T08:48:33.976Z,956.00
2023-05-12T08:49:33.684Z,972.00
2023-05-12T08:50:33.687Z,996.00
2023-05-12T08:51:33.694Z,1009.00
2023-05-12T08:52:33.683Z,1008.00
2023-05-12T08:53:34.032Z,1043.00
2023-05-12T08:54:36.013Z,1069.00
2023-05-12T08:55:35.026Z,1075.00
2023-05-12T08:57:33.702Z,1178.00
2023-05-12T08:58:40.845Z,1261.00
2023-05-12T08:59:34.663Z,1081.00
2023-05-12T09:00:33.678Z,1121.00
2023-05-12T09:01:34.768Z,1187.00
2023-05-12T09:02:48.187Z,1328.00
2023-05-12T09:03:34.673Z,1085.00
2023-05-12T09:04:33.661Z,1141.00
2023-05-12T09:05:33.676Z,1306.00
2023-05-12T09:06:33.630Z,1509.00
2023-05-12T09:07:33.602Z,1739.00
2023-05-12T09:08:33.613Z,1759.00
2023-05-12T09:09:33.588Z,1710.00
2023-05-12T09:10:35.626Z,1719.00
2023-05-12T09:11:33.586Z,1697.00
2023-05-12T09:12:33.794Z,1691.00
2023-05-12T09:13:33.606Z,1686.00
2023-05-12T09:14:33.563Z,1697.00
2023-05-12T09:15:33.563Z,1690.00
2023-05-12T09:16:33.610Z,1681.00
2023-05-12T09:17:33.581Z,1705.00
2023-05-12T09:18:33.623Z,1711.00
2023-05-12T09:19:33.579Z,1722.00
2023-05-12T09:20:33.646Z,1690.00
2023-05-12T09:21:33.653Z,1684.00
2023-05-12T09:22:33.681Z,1667.00
2023-05-12T09:23:33.738Z,1687.00
2023-05-12T09:24:33.809Z,1691.00
2023-05-12T09:25:33.772Z,1658.00
2023-05-12T09:26:33.777Z,1655.00
2023-05-12T09:27:33.788Z,1680.00
2023-05-12T09:28:34.067Z,1747.00
2023-05-12T09:29:37.428Z,1797.00
2023-05-12T09:30:34.844Z,1798.00
2023-05-12T09:31:33.873Z,1799.00
2023-05-12T09:32:33.910Z,1806.00
2023-05-12T09:33:33.825Z,1798.00
2023-05-12T09:34:33.830Z,1741.00
2023-05-12T09:35:33.817Z,1499.00
2023-05-12T09:36:33.827Z,1448.00
2023-05-12T09:37:33.818Z,1549.00
2023-05-12T09:38:33.770Z,1499.00
2023-05-12T09:39:33.818Z,1334.00
2023-05-12T09:40:33.871Z,1222.00
2023-05-12T09:41:33.891Z,1148.00
2023-05-12T09:42:33.930Z,1116.00
2023-05-12T09:43:33.968Z,1095.00
2023-05-12T09:44:33.998Z,1087.00
2023-05-12T09:45:33.984Z,1036.00
2023-05-12T09:46:34.267Z,1038.00
2023-05-12T09:47:34.032Z,1024.00
2023-05-12T09:48:34.033Z,1028.00
2023-05-12T09:49:34.047Z,1032.00
2023-05-12T09:50:44.282Z,1302.00
2023-05-12T09:51:35.068Z,1305.00
2023-05-12T09:52:34.123Z,1330.00
2023-05-12T09:53:34.034Z,1361.00
2023-05-12T09:54:34.026Z,1360.00
2023-05-12T09:55:34.130Z,1336.00
2023-05-12T09:56:34.025Z,1290.00
2023-05-12T09:57:34.055Z,1341.00
2023-05-12T09:58:34.014Z,1350.00
2023-05-12T09:59:34.013Z,1341.00
2023-05-12T10:01:34.000Z,1248.00
2023-05-12T10:02:34.147Z,1258.00
2023-05-12T10:03:33.965Z,1289.00
2023-05-12T10:04:34.000Z,1289.00
2023-05-12T10:05:33.968Z,1273.00
2023-05-12T10:06:34.051Z,1270.00
2023-05-12T10:07:33.953Z,1253.00
2023-05-12T10:08:33.958Z,1273.00
2023-05-12T10:09:33.989Z,1272.00
2023-05-12T10:10:33.992Z,1292.00
2023-05-12T10:11:33.921Z,1294.00
2023-05-12T10:12:33.905Z,1303.00
2023-05-12T10:13:33.911Z,1327.00
2023-05-12T10:14:33.889Z,1346.00
2023-05-12T10:15:33.885Z,1373.00
2023-05-12T10:16:33.915Z,1368.00
2023-05-12T10:17:33.906Z,1362.00
2023-05-12T10:18:33.879Z,1384.00
2023-05-12T10:19:33.857Z,1398.00
2023-05-12T10:20:33.962Z,1419.00
2023-05-12T10:21:33.843Z,1423.00
2023-05-12T10:22:33.848Z,1452.00
2023-05-12T10:23:34.925Z,1452.00
2023-05-12T10:24:33.891Z,1452.00
2023-05-12T10:25:33.820Z,1429.00
2023-05-12T10:26:33.819Z,1439.00
2023-05-12T10:27:33.818Z,1457.00
2023-05-12T10:28:33.799Z,1463.00
2023-05-12T10:29:34.530Z,1474.00
2023-05-12T10:30:33.793Z,1481.00
2023-05-12T10:31:33.817Z,1466.00
2023-05-12T10:32:33.815Z,1433.00
2023-05-12T10:33:33.774Z,1401.00
2023-05-12T10:34:33.772Z,1371.00
2023-05-12T10:35:33.789Z,1349.00
2023-05-12T10:36:33.752Z,1251.00
2023-05-12T10:37:33.737Z,1222.00
2023-05-12T10:38:33.740Z,1204.00
2023-05-12T10:39:33.748Z,1213.00
2023-05-12T10:40:33.733Z,1238.00
2023-05-12T10:41:33.712Z,1206.00
2023-05-12T10:42:33.703Z,1238.00
2023-05-12T10:43:33.714Z,1235.00
2023-05-12T10:44:33.724Z,1243.00
2023-05-12T10:45:33.679Z,1226.00
2023-05-12T10:46:33.719Z,1236.00
2023-05-12T10:47:33.684Z,1241.00
2023-05-12T10:48:33.694Z,1251.00
2023-05-12T10:49:33.668Z,1243.00
2023-05-12T10:50:33.687Z,1250.00
2023-05-12T10:51:33.635Z,1260.00
2023-05-12T10:52:33.621Z,1259.00
2023-05-12T10:53:45.245Z,1268.00
2023-05-12T10:54:34.621Z,1269.00
2023-05-12T10:55:33.676Z,1269.00
2023-05-12T10:56:33.744Z,1272.00
2023-05-12T10:57:34.168Z,1272.00
2023-05-12T10:58:33.896Z,1286.00
2023-05-12T10:59:33.908Z,1283.00
2023-05-12T11:00:33.967Z,1286.00
2023-05-12T11:01:34.359Z,1284.00
2023-05-12T11:02:34.745Z,1292.00
2023-05-12T11:03:34.626Z,1324.00
2023-05-12T11:04:33.986Z,1325.00
2023-05-12T11:05:33.699Z,1324.00
2023-05-12T11:06:34.250Z,1313.00
2023-05-12T11:07:34.893Z,1302.00
2023-05-12T11:08:34.169Z,1288.00
2023-05-12T11:09:34.777Z,1290.00
2023-05-12T11:10:33.850Z,1312.00
2023-05-12T11:11:34.225Z,1295.00
2023-05-12T11:12:33.759Z,1295.00
2023-05-12T11:13:33.729Z,1280.00
2023-05-12T11:14:33.726Z,1290.00
2023-05-12T11:15:33.716Z,1280.00
2023-05-12T11:17:04.579Z,500.00
2023-05-12T11:18:04.667Z,500.00
2023-05-12T11:19:04.618Z,500.00
2023-05-12T11:20:04.585Z,500.00
2023-05-12T11:21:04.546Z,500.00
2023-05-12T11:22:04.561Z,500.00
2023-05-12T11:23:04.548Z,504.00
2023-05-12T11:24:04.540Z,501.00
2023-05-12T11:25:04.540Z,507.00
2023-05-12T11:26:04.511Z,501.00
2023-05-12T11:27:04.524Z,502.00
2023-05-12T11:28:04.505Z,505.00
2023-05-12T11:29:04.497Z,505.00
2023-05-12T11:30:04.514Z,509.00
2023-05-12T11:31:04.519Z,508.00
2023-05-12T11:32:04.596Z,505.00
2023-05-12T11:33:04.565Z,500.00
2023-05-12T11:35:04.556Z,508.00
2023-05-12T11:36:04.526Z,507.00
2023-05-12T11:37:04.465Z,503.00
2023-05-12T11:38:04.447Z,500.00
2023-05-12T11:39:04.433Z,503.00
2023-05-12T11:40:04.457Z,505.00
2023-05-12T11:41:04.457Z,504.00
2023-05-12T11:42:12.079Z,501.00
2023-05-12T11:43:05.433Z,501.00
2023-05-12T11:44:04.412Z,501.00
2023-05-12T11:45:04.407Z,503.00
2023-05-12T11:46:04.408Z,503.00
2023-05-12T11:47:04.419Z,504.00
2023-05-12T11:48:04.444Z,504.00
2023-05-12T11:49:04.387Z,503.00
2023-05-12T11:50:04.381Z,504.00
2023-05-12T11:51:04.371Z,504.00
2023-05-12T11:52:04.392Z,507.00
2023-05-12T11:53:04.452Z,510.00
2023-05-12T11:54:04.521Z,516.00
2023-05-12T11:55:04.551Z,510.00
2023-05-12T11:56:04.596Z,505.00
2023-05-12T11:57:04.667Z,503.00
2023-05-12T11:58:04.731Z,501.00
2023-05-12T11:59:04.779Z,500.00
2023-05-12T12:00:04.816Z,508.00
2023-05-12T12:01:04.863Z,509.00
2023-05-12T12:02:04.948Z,502.00
2023-05-12T12:03:05.089Z,504.00
2023-05-12T12:04:05.077Z,503.00
2023-05-12T12:05:06.459Z,502.00
2023-05-12T12:06:05.028Z,505.00
2023-05-12T12:07:05.020Z,507.00
2023-05-12T12:08:05.026Z,507.00
2023-05-12T12:09:05.021Z,508.00
2023-05-12T12:10:05.019Z,502.00
2023-05-12T12:11:04.997Z,507.00
2023-05-12T12:12:04.998Z,505.00
2023-05-12T12:13:05.004Z,505.00
2023-05-12T12:14:05.010Z,505.00
2023-05-12T12:15:05.083Z,506.00
2023-05-12T12:16:05.042Z,503.00
2023-05-12T12:17:04.985Z,501.00
2023-05-12T12:18:05.013Z,506.00
2023-05-12T12:19:04.972Z,507.00
2023-05-12T12:20:05.300Z,508.00
2023-05-12T12:21:04.963Z,508.00